sensor_id;sensor_type;location;lat;lon;timestamp;P1;durP1;ratioP1;P2;durP2;ratioP2
24008;SDS011;12217;50.792;4.372;2023-04-01T00:00:17;20.73;;;3.55;;
24008;SDS011;12217;50.792;4.372;2023-04-01T00:02:43;10.80;;;3.08;;
24008;SDS011;12217;50.792;4.372;2023-04-01T00:05:09;10.98;;;2.83;;
24008;SDS011;12217;50.792;4.372;2023-04-01T00:07:36;11.65;;;3.10;;
24008;SDS011;12217;50.792;4.372;2023-04-01T00:10:03;11.38;;;2.95;;
24008;SDS011;12217;50.792;4.372;2023-04-01T00:12:30;9.38;;;2.60;;
24008;SDS011;12217;50.792;4.372;2023-04-01T00:14:56;8.73;;;2.42;;
24008;SDS011;12217;50.792;4.372;2023-04-01T00:17:22;9.05;;;2.42;;
24008;SDS011;12217;50.792;4.372;2023-04-01T00:19:47;7.80;;;2.75;;
24008;SDS011;12217;50.792;4.372;2023-04-01T00:22:13;9.75;;;2.30;;
24008;SDS011;12217;50.792;4.372;2023-04-01T00:24:39;9.50;;;2.58;;
24008;SDS011;12217;50.792;4.372;2023-04-01T00:27:05;9.23;;;2.60;;
24008;SDS011;12217;50.792;4.372;2023-04-01T00:29:33;8.98;;;2.30;;
24008;SDS011;12217;50.792;4.372;2023-04-01T00:31:59;10.75;;;2.15;;
24008;SDS011;12217;50.792;4.372;2023-04-01T00:34:25;10.18;;;2.60;;
24008;SDS011;12217;50.792;4.372;2023-04-01T00:36:51;11.38;;;2.20;;
24008;SDS011;12217;50.792;4.372;2023-04-01T00:39:18;6.88;;;2.15;;
24008;SDS011;12217;50.792;4.372;2023-04-01T00:41:44;8.70;;;2.50;;
24008;SDS011;12217;50.792;4.372;2023-04-01T00:44:17;7.50;;;2.22;;
24008;SDS011;12217;50.792;4.372;2023-04-01T00:46:48;9.55;;;2.70;;
24008;SDS011;12217;50.792;4.372;2023-04-01T00:49:15;8.95;;;2.63;;
24008;SDS011;12217;50.792;4.372;2023-04-01T00:51:44;6.05;;;2.63;;
24008;SDS011;12217;50.792;4.372;2023-04-01T00:54:13;9.82;;;3.33;;
24008;SDS011;12217;50.792;4.372;2023-04-01T00:59:46;8.02;;;2.83;;
24008;SDS011;12217;50.792;4.372;2023-04-01T01:02:15;7.60;;;3.45;;
24008;SDS011;12217;50.792;4.372;2023-04-01T01:04:41;7.95;;;3.03;;
24008;SDS011;12217;50.792;4.372;2023-04-01T01:09:51;5.93;;;2.72;;
24008;SDS011;12217;50.792;4.372;2023-04-01T01:12:34;4.78;;;2.90;;
24008;SDS011;12217;50.792;4.372;2023-04-01T01:15:27;4.60;;;3.10;;
24008;SDS011;12217;50.792;4.372;2023-04-01T01:18:05;7.35;;;3.50;;
24008;SDS011;12217;50.792;4.372;2023-04-01T01:30:42;8.48;;;3.75;;
24008;SDS011;12217;50.792;4.372;2023-04-01T01:36:22;5.13;;;3.28;;
24008;SDS011;12217;50.792;4.372;2023-04-01T01:38:53;7.38;;;3.40;;
24008;SDS011;12217;50.792;4.372;2023-04-01T01:41:21;6.40;;;3.20;;
24008;SDS011;12217;50.792;4.372;2023-04-01T01:43:51;8.00;;;3.35;;
24008;SDS011;12217;50.792;4.372;2023-04-01T01:46:22;4.35;;;2.83;;
24008;SDS011;12217;50.792;4.372;2023-04-01T01:48:49;6.63;;;2.83;;
24008;SDS011;12217;50.792;4.372;2023-04-01T01:51:17;5.30;;;2.67;;
24008;SDS011;12217;50.792;4.372;2023-04-01T01:53:44;4.90;;;3.20;;
24008;SDS011;12217;50.792;4.372;2023-04-01T01:56:10;4.68;;;3.00;;
24008;SDS011;12217;50.792;4.372;2023-04-01T01:58:44;8.25;;;3.55;;
24008;SDS011;12217;50.792;4.372;2023-04-01T02:01:13;4.85;;;3.17;;
24008;SDS011;12217;50.792;4.372;2023-04-01T02:03:42;7.10;;;3.83;;
24008;SDS011;12217;50.792;4.372;2023-04-01T02:06:10;8.07;;;4.57;;
24008;SDS011;12217;50.792;4.372;2023-04-01T02:08:59;9.70;;;4.38;;
24008;SDS011;12217;50.792;4.372;2023-04-01T02:12:03;7.80;;;4.50;;
24008;SDS011;12217;50.792;4.372;2023-04-01T02:14:47;6.28;;;4.32;;
24008;SDS011;12217;50.792;4.372;2023-04-01T02:17:23;7.63;;;4.25;;
24008;SDS011;12217;50.792;4.372;2023-04-01T02:19:56;7.20;;;4.13;;
24008;SDS011;12217;50.792;4.372;2023-04-01T02:22:33;8.80;;;4.93;;
24008;SDS011;12217;50.792;4.372;2023-04-01T02:25:06;7.25;;;4.97;;
24008;SDS011;12217;50.792;4.372;2023-04-01T02:27:34;8.45;;;4.93;;
24008;SDS011;12217;50.792;4.372;2023-04-01T02:30:00;6.60;;;5.50;;
24008;SDS011;12217;50.792;4.372;2023-04-01T02:32:26;8.68;;;5.35;;
24008;SDS011;12217;50.792;4.372;2023-04-01T02:34:54;7.55;;;5.90;;
24008;SDS011;12217;50.792;4.372;2023-04-01T02:37:21;12.82;;;5.82;;
24008;SDS011;12217;50.792;4.372;2023-04-01T02:39:47;10.88;;;5.93;;
24008;SDS011;12217;50.792;4.372;2023-04-01T02:42:13;10.40;;;5.82;;
24008;SDS011;12217;50.792;4.372;2023-04-01T02:44:39;9.38;;;5.43;;
24008;SDS011;12217;50.792;4.372;2023-04-01T02:47:05;9.40;;;6.00;;
24008;SDS011;12217;50.792;4.372;2023-04-01T02:49:31;10.38;;;5.97;;
24008;SDS011;12217;50.792;4.372;2023-04-01T02:51:56;9.45;;;5.88;;
24008;SDS011;12217;50.792;4.372;2023-04-01T02:54:22;11.07;;;5.80;;
24008;SDS011;12217;50.792;4.372;2023-04-01T02:56:47;12.60;;;6.28;;
24008;SDS011;12217;50.792;4.372;2023-04-01T02:59:14;10.65;;;5.32;;
24008;SDS011;12217;50.792;4.372;2023-04-01T03:01:39;13.25;;;6.03;;
24008;SDS011;12217;50.792;4.372;2023-04-01T03:04:05;12.43;;;6.32;;
24008;SDS011;12217;50.792;4.372;2023-04-01T03:06:31;13.07;;;6.43;;
24008;SDS011;12217;50.792;4.372;2023-04-01T03:08:56;15.23;;;7.25;;
24008;SDS011;12217;50.792;4.372;2023-04-01T03:11:22;11.95;;;6.78;;
24008;SDS011;12217;50.792;4.372;2023-04-01T03:13:48;11.70;;;6.35;;
24008;SDS011;12217;50.792;4.372;2023-04-01T03:16:13;13.23;;;7.35;;
24008;SDS011;12217;50.792;4.372;2023-04-01T03:18:39;10.88;;;7.45;;
24008;SDS011;12217;50.792;4.372;2023-04-01T03:21:16;11.75;;;8.27;;
24008;SDS011;12217;50.792;4.372;2023-04-01T03:23:44;15.95;;;8.75;;
24008;SDS011;12217;50.792;4.372;2023-04-01T03:26:10;13.35;;;8.90;;
24008;SDS011;12217;50.792;4.372;2023-04-01T03:28:36;16.45;;;9.10;;
24008;SDS011;12217;50.792;4.372;2023-04-01T03:31:02;18.50;;;10.02;;
24008;SDS011;12217;50.792;4.372;2023-04-01T03:33:27;16.70;;;9.18;;
24008;SDS011;12217;50.792;4.372;2023-04-01T03:35:53;15.68;;;10.18;;
24008;SDS011;12217;50.792;4.372;2023-04-01T03:38:19;18.75;;;9.77;;
24008;SDS011;12217;50.792;4.372;2023-04-01T03:40:45;18.23;;;9.40;;
24008;SDS011;12217;50.792;4.372;2023-04-01T03:43:10;13.70;;;9.27;;
24008;SDS011;12217;50.792;4.372;2023-04-01T03:45:43;15.10;;;9.52;;
24008;SDS011;12217;50.792;4.372;2023-04-01T03:48:10;17.90;;;9.77;;
24008;SDS011;12217;50.792;4.372;2023-04-01T03:50:35;17.75;;;9.38;;
24008;SDS011;12217;50.792;4.372;2023-04-01T03:53:01;19.65;;;9.32;;
24008;SDS011;12217;50.792;4.372;2023-04-01T03:55:27;18.80;;;9.45;;
24008;SDS011;12217;50.792;4.372;2023-04-01T03:57:52;20.13;;;8.65;;
24008;SDS011;12217;50.792;4.372;2023-04-01T04:00:18;17.95;;;8.20;;
24008;SDS011;12217;50.792;4.372;2023-04-01T04:02:44;17.45;;;8.10;;
24008;SDS011;12217;50.792;4.372;2023-04-01T04:05:10;15.15;;;8.73;;
24008;SDS011;12217;50.792;4.372;2023-04-01T04:07:35;18.75;;;8.85;;
24008;SDS011;12217;50.792;4.372;2023-04-01T04:10:01;14.70;;;7.90;;
24008;SDS011;12217;50.792;4.372;2023-04-01T04:12:27;15.68;;;8.25;;
24008;SDS011;12217;50.792;4.372;2023-04-01T04:14:53;12.13;;;7.53;;
24008;SDS011;12217;50.792;4.372;2023-04-01T04:17:18;15.55;;;8.40;;
24008;SDS011;12217;50.792;4.372;2023-04-01T04:19:44;14.63;;;8.98;;
24008;SDS011;12217;50.792;4.372;2023-04-01T04:22:09;18.20;;;9.30;;
24008;SDS011;12217;50.792;4.372;2023-04-01T04:24:35;17.23;;;9.23;;
24008;SDS011;12217;50.792;4.372;2023-04-01T04:27:01;16.40;;;9.30;;
24008;SDS011;12217;50.792;4.372;2023-04-01T04:29:27;14.73;;;9.57;;
24008;SDS011;12217;50.792;4.372;2023-04-01T04:31:53;14.80;;;9.57;;
24008;SDS011;12217;50.792;4.372;2023-04-01T04:34:18;15.10;;;9.52;;
24008;SDS011;12217;50.792;4.372;2023-04-01T04:36:44;15.10;;;9.35;;
24008;SDS011;12217;50.792;4.372;2023-04-01T04:39:10;15.40;;;9.60;;
24008;SDS011;12217;50.792;4.372;2023-04-01T04:41:38;13.73;;;9.20;;
24008;SDS011;12217;50.792;4.372;2023-04-01T04:44:04;14.65;;;9.45;;
24008;SDS011;12217;50.792;4.372;2023-04-01T04:46:30;14.40;;;9.68;;
24008;SDS011;12217;50.792;4.372;2023-04-01T04:48:57;12.45;;;9.20;;
24008;SDS011;12217;50.792;4.372;2023-04-01T04:51:22;15.55;;;9.50;;
24008;SDS011;12217;50.792;4.372;2023-04-01T04:53:48;12.07;;;9.63;;
24008;SDS011;12217;50.792;4.372;2023-04-01T04:56:18;18.42;;;9.73;;
24008;SDS011;12217;50.792;4.372;2023-04-01T04:58:45;12.63;;;8.68;;
24008;SDS011;12217;50.792;4.372;2023-04-01T05:01:11;12.70;;;8.50;;
24008;SDS011;12217;50.792;4.372;2023-04-01T05:03:38;14.68;;;8.02;;
24008;SDS011;12217;50.792;4.372;2023-04-01T05:06:05;9.82;;;7.65;;
24008;SDS011;12217;50.792;4.372;2023-04-01T05:08:31;9.00;;;7.38;;
24008;SDS011;12217;50.792;4.372;2023-04-01T05:10:58;11.20;;;7.50;;
24008;SDS011;12217;50.792;4.372;2023-04-01T05:13:24;9.20;;;6.60;;
24008;SDS011;12217;50.792;4.372;2023-04-01T05:15:49;7.90;;;6.05;;
24008;SDS011;12217;50.792;4.372;2023-04-01T05:18:15;9.80;;;5.70;;
24008;SDS011;12217;50.792;4.372;2023-04-01T05:20:48;6.57;;;5.30;;
24008;SDS011;12217;50.792;4.372;2023-04-01T05:23:15;7.57;;;5.22;;
24008;SDS011;12217;50.792;4.372;2023-04-01T05:25:41;8.35;;;5.78;;
24008;SDS011;12217;50.792;4.372;2023-04-01T05:28:07;7.97;;;6.18;;
24008;SDS011;12217;50.792;4.372;2023-04-01T05:30:33;12.10;;;6.35;;
24008;SDS011;12217;50.792;4.372;2023-04-01T05:32:59;10.93;;;6.53;;
24008;SDS011;12217;50.792;4.372;2023-04-01T05:35:24;8.70;;;5.82;;
24008;SDS011;12217;50.792;4.372;2023-04-01T05:37:50;10.15;;;6.75;;
24008;SDS011;12217;50.792;4.372;2023-04-01T05:40:16;8.52;;;6.50;;
24008;SDS011;12217;50.792;4.372;2023-04-01T05:42:42;13.32;;;7.15;;
24008;SDS011;12217;50.792;4.372;2023-04-01T05:45:08;10.05;;;6.72;;
24008;SDS011;12217;50.792;4.372;2023-04-01T05:47:34;14.32;;;8.30;;
24008;SDS011;12217;50.792;4.372;2023-04-01T05:49:59;14.13;;;8.27;;
24008;SDS011;12217;50.792;4.372;2023-04-01T05:52:25;11.73;;;9.10;;
24008;SDS011;12217;50.792;4.372;2023-04-01T05:54:51;14.13;;;9.00;;
24008;SDS011;12217;50.792;4.372;2023-04-01T05:57:16;16.45;;;9.40;;
24008;SDS011;12217;50.792;4.372;2023-04-01T05:59:42;10.27;;;8.40;;
24008;SDS011;12217;50.792;4.372;2023-04-01T06:02:08;13.32;;;9.20;;
24008;SDS011;12217;50.792;4.372;2023-04-01T06:04:37;14.52;;;9.05;;
24008;SDS011;12217;50.792;4.372;2023-04-01T06:07:11;14.40;;;8.63;;
24008;SDS011;12217;50.792;4.372;2023-04-01T06:09:38;12.13;;;8.80;;
24008;SDS011;12217;50.792;4.372;2023-04-01T06:15:10;15.93;;;9.55;;
24008;SDS011;12217;50.792;4.372;2023-04-01T06:18:01;14.25;;;9.70;;
24008;SDS011;12217;50.792;4.372;2023-04-01T06:42:59;19.10;;;10.07;;
24008;SDS011;12217;50.792;4.372;2023-04-01T06:45:53;15.25;;;10.13;;
24008;SDS011;12217;50.792;4.372;2023-04-01T06:56:38;18.25;;;9.07;;
24008;SDS011;12217;50.792;4.372;2023-04-01T06:59:25;13.50;;;8.77;;
24008;SDS011;12217;50.792;4.372;2023-04-01T07:02:20;14.32;;;9.57;;
24008;SDS011;12217;50.792;4.372;2023-04-01T07:04:44;11.10;;;8.80;;
24008;SDS011;12217;50.792;4.372;2023-04-01T07:09:43;12.85;;;8.20;;
24008;SDS011;12217;50.792;4.372;2023-04-01T07:15:19;9.40;;;7.85;;
24008;SDS011;12217;50.792;4.372;2023-04-01T07:18:19;16.42;;;8.30;;
24008;SDS011;12217;50.792;4.372;2023-04-01T07:20:55;14.23;;;9.07;;
24008;SDS011;12217;50.792;4.372;2023-04-01T07:23:23;11.52;;;8.35;;
24008;SDS011;12217;50.792;4.372;2023-04-01T07:25:52;11.77;;;7.90;;
24008;SDS011;12217;50.792;4.372;2023-04-01T07:28:23;9.75;;;6.68;;
24008;SDS011;12217;50.792;4.372;2023-04-01T07:36:39;9.63;;;6.53;;
24008;SDS011;12217;50.792;4.372;2023-04-01T07:53:36;8.70;;;6.05;;
24008;SDS011;12217;50.792;4.372;2023-04-01T07:55:55;5.93;;;5.05;;
24008;SDS011;12217;50.792;4.372;2023-04-01T07:59:02;6.00;;;4.93;;
24008;SDS011;12217;50.792;4.372;2023-04-01T08:04:21;6.25;;;3.70;;
24008;SDS011;12217;50.792;4.372;2023-04-01T08:09:40;5.65;;;3.80;;
24008;SDS011;12217;50.792;4.372;2023-04-01T08:12:21;4.63;;;3.92;;
24008;SDS011;12217;50.792;4.372;2023-04-01T08:15:19;4.70;;;4.13;;
24008;SDS011;12217;50.792;4.372;2023-04-01T08:20:40;4.65;;;4.10;;
24008;SDS011;12217;50.792;4.372;2023-04-01T08:25:35;4.13;;;3.22;;
24008;SDS011;12217;50.792;4.372;2023-04-01T08:28:22;3.35;;;3.03;;
24008;SDS011;12217;50.792;4.372;2023-04-01T08:31:16;3.53;;;3.20;;
24008;SDS011;12217;50.792;4.372;2023-04-01T08:33:47;2.90;;;2.70;;
24008;SDS011;12217;50.792;4.372;2023-04-01T08:36:37;2.88;;;2.58;;
24008;SDS011;12217;50.792;4.372;2023-04-01T08:39:07;2.92;;;2.38;;
24008;SDS011;12217;50.792;4.372;2023-04-01T08:44:42;2.17;;;1.92;;
24008;SDS011;12217;50.792;4.372;2023-04-01T08:47:31;1.58;;;1.48;;
24008;SDS011;12217;50.792;4.372;2023-04-01T09:04:25;4.38;;;1.85;;
24008;SDS011;12217;50.792;4.372;2023-04-01T09:07:17;4.35;;;2.10;;
24008;SDS011;12217;50.792;4.372;2023-04-01T09:13:05;2.35;;;2.15;;
24008;SDS011;12217;50.792;4.372;2023-04-01T09:32:48;4.30;;;2.97;;
24008;SDS011;12217;50.792;4.372;2023-04-01T09:37:52;2.75;;;2.55;;
24008;SDS011;12217;50.792;4.372;2023-04-01T10:15:43;2.22;;;2.03;;
24008;SDS011;12217;50.792;4.372;2023-04-01T10:24:09;1.70;;;1.60;;
24008;SDS011;12217;50.792;4.372;2023-04-01T10:44:11;2.65;;;1.90;;
24008;SDS011;12217;50.792;4.372;2023-04-01T10:57:53;4.13;;;2.50;;
24008;SDS011;12217;50.792;4.372;2023-04-01T11:06:26;2.95;;;2.65;;
24008;SDS011;12217;50.792;4.372;2023-04-01T11:14:32;3.20;;;2.50;;
24008;SDS011;12217;50.792;4.372;2023-04-01T11:20:36;3.00;;;2.70;;
24008;SDS011;12217;50.792;4.372;2023-04-01T11:32:28;2.90;;;2.38;;
24008;SDS011;12217;50.792;4.372;2023-04-01T11:40:52;3.80;;;2.08;;
24008;SDS011;12217;50.792;4.372;2023-04-01T11:46:12;2.25;;;2.05;;
24008;SDS011;12217;50.792;4.372;2023-04-01T11:54:28;2.05;;;1.95;;
24008;SDS011;12217;50.792;4.372;2023-04-01T11:57:34;3.13;;;2.10;;
24008;SDS011;12217;50.792;4.372;2023-04-01T12:10:40;2.90;;;2.55;;
24008;SDS011;12217;50.792;4.372;2023-04-01T12:13:36;4.85;;;2.65;;
24008;SDS011;12217;50.792;4.372;2023-04-01T12:19:16;5.28;;;2.80;;
24008;SDS011;12217;50.792;4.372;2023-04-01T12:49:31;6.30;;;4.13;;
24008;SDS011;12217;50.792;4.372;2023-04-01T13:05:38;6.03;;;4.07;;
24008;SDS011;12217;50.792;4.372;2023-04-01T13:08:27;4.70;;;4.20;;
24008;SDS011;12217;50.792;4.372;2023-04-01T13:11:19;6.80;;;4.18;;
24008;SDS011;12217;50.792;4.372;2023-04-01T13:16:41;4.63;;;4.20;;
24008;SDS011;12217;50.792;4.372;2023-04-01T13:19:34;4.85;;;3.88;;
24008;SDS011;12217;50.792;4.372;2023-04-01T13:22:14;5.07;;;3.80;;
24008;SDS011;12217;50.792;4.372;2023-04-01T13:25:02;7.32;;;4.03;;
24008;SDS011;12217;50.792;4.372;2023-04-01T13:27:40;6.68;;;4.32;;
24008;SDS011;12217;50.792;4.372;2023-04-01T13:43:36;5.80;;;3.50;;
24008;SDS011;12217;50.792;4.372;2023-04-01T13:46:17;4.90;;;3.10;;
24008;SDS011;12217;50.792;4.372;2023-04-01T14:03:20;3.75;;;3.28;;
24008;SDS011;12217;50.792;4.372;2023-04-01T14:06:27;5.10;;;3.33;;
24008;SDS011;12217;50.792;4.372;2023-04-01T14:09:27;4.38;;;3.50;;
24008;SDS011;12217;50.792;4.372;2023-04-01T14:12:29;5.50;;;3.55;;
24008;SDS011;12217;50.792;4.372;2023-04-01T14:22:52;5.38;;;3.40;;
24008;SDS011;12217;50.792;4.372;2023-04-01T14:36:04;2.20;;;2.00;;
24008;SDS011;12217;50.792;4.372;2023-04-01T14:42:33;3.20;;;2.85;;
24008;SDS011;12217;50.792;4.372;2023-04-01T14:44:48;2.88;;;2.25;;
24008;SDS011;12217;50.792;4.372;2023-04-01T14:58:10;1.50;;;1.40;;
24008;SDS011;12217;50.792;4.372;2023-04-01T15:15:15;2.20;;;1.98;;
24008;SDS011;12217;50.792;4.372;2023-04-01T15:31:53;1.95;;;1.70;;
24008;SDS011;12217;50.792;4.372;2023-04-01T15:49:01;2.33;;;2.05;;
24008;SDS011;12217;50.792;4.372;2023-04-01T16:00:23;3.88;;;1.50;;
24008;SDS011;12217;50.792;4.372;2023-04-01T16:22:34;4.15;;;1.80;;
24008;SDS011;12217;50.792;4.372;2023-04-01T16:27:59;1.95;;;1.50;;
24008;SDS011;12217;50.792;4.372;2023-04-01T16:30:33;4.30;;;1.85;;
24008;SDS011;12217;50.792;4.372;2023-04-01T16:38:55;2.47;;;1.60;;
24008;SDS011;12217;50.792;4.372;2023-04-01T16:41:35;2.55;;;1.60;;
24008;SDS011;12217;50.792;4.372;2023-04-01T16:44:20;3.45;;;2.00;;
24008;SDS011;12217;50.792;4.372;2023-04-01T16:46:52;3.33;;;1.70;;
24008;SDS011;12217;50.792;4.372;2023-04-01T16:52:13;2.20;;;2.00;;
24008;SDS011;12217;50.792;4.372;2023-04-01T16:54:43;2.60;;;2.20;;
24008;SDS011;12217;50.792;4.372;2023-04-01T16:57:23;3.15;;;2.80;;
24008;SDS011;12217;50.792;4.372;2023-04-01T17:03:16;3.95;;;2.40;;
24008;SDS011;12217;50.792;4.372;2023-04-01T17:08:50;3.22;;;2.58;;
24008;SDS011;12217;50.792;4.372;2023-04-01T17:14:27;3.05;;;2.63;;
24008;SDS011;12217;50.792;4.372;2023-04-01T17:38:56;4.25;;;3.50;;
24008;SDS011;12217;50.792;4.372;2023-04-01T17:49:58;4.45;;;3.22;;
24008;SDS011;12217;50.792;4.372;2023-04-01T17:53:09;4.22;;;3.45;;
24008;SDS011;12217;50.792;4.372;2023-04-01T17:56:28;3.75;;;3.28;;
24008;SDS011;12217;50.792;4.372;2023-04-01T17:59:38;4.13;;;3.22;;
24008;SDS011;12217;50.792;4.372;2023-04-01T18:04:52;6.72;;;4.30;;
24008;SDS011;12217;50.792;4.372;2023-04-01T18:10:48;6.72;;;4.70;;
24008;SDS011;12217;50.792;4.372;2023-04-01T18:15:46;5.93;;;4.30;;
24008;SDS011;12217;50.792;4.372;2023-04-01T18:26:30;5.00;;;4.60;;
24008;SDS011;12217;50.792;4.372;2023-04-01T18:32:07;5.75;;;5.20;;
24008;SDS011;12217;50.792;4.372;2023-04-01T18:34:42;6.78;;;4.85;;
24008;SDS011;12217;50.792;4.372;2023-04-01T18:37:39;5.90;;;5.15;;
24008;SDS011;12217;50.792;4.372;2023-04-01T18:40:45;5.45;;;4.97;;
24008;SDS011;12217;50.792;4.372;2023-04-01T18:45:58;7.32;;;6.40;;
24008;SDS011;12217;50.792;4.372;2023-04-01T18:51:17;7.38;;;6.63;;
24008;SDS011;12217;50.792;4.372;2023-04-01T18:53:58;6.53;;;6.00;;
24008;SDS011;12217;50.792;4.372;2023-04-01T18:56:37;7.70;;;6.80;;
24008;SDS011;12217;50.792;4.372;2023-04-01T19:04:50;9.00;;;8.10;;
24008;SDS011;12217;50.792;4.372;2023-04-01T19:07:49;9.80;;;7.90;;
24008;SDS011;12217;50.792;4.372;2023-04-01T19:15:44;9.50;;;8.48;;
24008;SDS011;12217;50.792;4.372;2023-04-01T19:18:26;10.70;;;9.60;;
24008;SDS011;12217;50.792;4.372;2023-04-01T19:22:03;11.13;;;10.02;;
24008;SDS011;12217;50.792;4.372;2023-04-01T19:35:13;15.35;;;13.57;;
24008;SDS011;12217;50.792;4.372;2023-04-01T19:38:23;17.33;;;14.02;;
24008;SDS011;12217;50.792;4.372;2023-04-01T19:41:00;19.20;;;15.32;;
24008;SDS011;12217;50.792;4.372;2023-04-01T19:46:26;20.65;;;16.10;;
24008;SDS011;12217;50.792;4.372;2023-04-01T20:06:05;18.17;;;14.90;;
24008;SDS011;12217;50.792;4.372;2023-04-01T20:08:41;17.65;;;14.15;;
24008;SDS011;12217;50.792;4.372;2023-04-01T20:17:06;23.33;;;15.63;;
24008;SDS011;12217;50.792;4.372;2023-04-01T20:19:44;19.80;;;14.88;;
24008;SDS011;12217;50.792;4.372;2023-04-01T20:24:50;19.27;;;14.32;;
24008;SDS011;12217;50.792;4.372;2023-04-01T20:27:22;17.08;;;13.65;;
24008;SDS011;12217;50.792;4.372;2023-04-01T20:30:04;17.83;;;14.05;;
24008;SDS011;12217;50.792;4.372;2023-04-01T20:44:08;20.95;;;15.68;;
24008;SDS011;12217;50.792;4.372;2023-04-01T20:46:48;21.77;;;15.15;;
24008;SDS011;12217;50.792;4.372;2023-04-01T20:55:03;19.98;;;15.63;;
24008;SDS011;12217;50.792;4.372;2023-04-01T20:57:42;19.27;;;15.13;;
24008;SDS011;12217;50.792;4.372;2023-04-01T21:06:02;18.00;;;13.40;;
24008;SDS011;12217;50.792;4.372;2023-04-01T21:09:02;18.13;;;14.23;;
24008;SDS011;12217;50.792;4.372;2023-04-01T21:14:31;19.92;;;14.85;;
24008;SDS011;12217;50.792;4.372;2023-04-01T21:22:46;23.05;;;17.00;;
24008;SDS011;12217;50.792;4.372;2023-04-01T21:28:28;22.23;;;17.02;;
24008;SDS011;12217;50.792;4.372;2023-04-01T21:45:37;26.45;;;19.27;;
24008;SDS011;12217;50.792;4.372;2023-04-01T21:54:38;24.00;;;16.83;;
24008;SDS011;12217;50.792;4.372;2023-04-01T22:00:20;23.17;;;17.10;;
24008;SDS011;12217;50.792;4.372;2023-04-01T22:05:37;19.63;;;15.15;;
24008;SDS011;12217;50.792;4.372;2023-04-01T22:10:59;20.13;;;14.65;;
24008;SDS011;12217;50.792;4.372;2023-04-01T22:13:57;21.08;;;15.13;;
24008;SDS011;12217;50.792;4.372;2023-04-01T22:19:24;17.38;;;13.50;;
24008;SDS011;12217;50.792;4.372;2023-04-01T22:22:08;14.50;;;12.73;;
24008;SDS011;12217;50.792;4.372;2023-04-01T22:38:52;14.32;;;12.80;;
24008;SDS011;12217;50.792;4.372;2023-04-01T22:41:31;16.40;;;14.07;;
24008;SDS011;12217;50.792;4.372;2023-04-01T22:44:17;15.95;;;14.10;;
24008;SDS011;12217;50.792;4.372;2023-04-01T22:46:56;16.70;;;15.00;;
24008;SDS011;12217;50.792;4.372;2023-04-01T22:52:40;19.98;;;17.88;;
24008;SDS011;12217;50.792;4.372;2023-04-01T22:55:10;20.73;;;18.52;;
24008;SDS011;12217;50.792;4.372;2023-04-01T22:57:59;20.15;;;18.05;;
24008;SDS011;12217;50.792;4.372;2023-04-01T23:00:40;18.83;;;16.88;;
24008;SDS011;12217;50.792;4.372;2023-04-01T23:06:05;19.05;;;16.83;;
24008;SDS011;12217;50.792;4.372;2023-04-01T23:24:38;18.08;;;16.17;;
24008;SDS011;12217;50.792;4.372;2023-04-01T23:27:27;15.40;;;13.80;;
24008;SDS011;12217;50.792;4.372;2023-04-01T23:33:19;16.02;;;14.40;;
24008;SDS011;12217;50.792;4.372;2023-04-01T23:38:18;17.10;;;15.40;;
24008;SDS011;12217;50.792;4.372;2023-04-01T23:40:49;16.67;;;14.95;;
24008;SDS011;12217;50.792;4.372;2023-04-01T23:43:22;17.40;;;15.60;;
24008;SDS011;12217;50.792;4.372;2023-04-01T23:46:02;18.65;;;16.67;;
24008;SDS011;12217;50.792;4.372;2023-04-01T23:48:32;17.23;;;15.45;;
24008;SDS011;12217;50.792;4.372;2023-04-01T23:51:01;17.30;;;15.50;;
24008;SDS011;12217;50.792;4.372;2023-04-01T23:53:32;19.23;;;17.15;;
24008;SDS011;12217;50.792;4.372;2023-04-01T23:55:59;19.95;;;17.70;;
24008;SDS011;12217;50.792;4.372;2023-04-01T23:58:38;19.50;;;16.92;;
